Time;durP1;ratioP1;P1;durP2;ratioP2;P2;SDS_P1;SDS_P2;PMS_P1;PMS_P2;Temp;Humidity;BMP_temperature;BMP_pressure;BME280_temperature;BME280_humidity;BME280_pressure;Samples;Min_cycle;Max_cycle;Signal;HPM_P1;HPM_P2
2023/10/03 00:00:38;;;;;;;7.05;2.63;;;31.40;28.00;;;;;;5014307;28;20181;-72
2023/10/03 00:03:08;;;;;;;6.68;3.47;;;31.50;27.50;;;;;;5014739;28;20189;-76
2023/10/03 00:05:36;;;;;;;5.67;2.77;;;31.40;27.30;;;;;;5013673;28;20272;-73
2023/10/03 00:08:04;;;;;;;4.63;3.03;;;31.50;26.80;;;;;;5012785;28;20189;-71
2023/10/03 00:10:35;;;;;;;7.90;3.47;;;31.70;26.90;;;;;;5019239;28;20177;-75
2023/10/03 00:13:03;;;;;;;6.18;2.67;;;31.70;27.10;;;;;;5014146;28;20365;-74
2023/10/03 00:15:32;;;;;;;7.30;2.92;;;31.80;26.50;;;;;;5011537;28;20553;-73
2023/10/03 00:18:01;;;;;;;4.67;3.10;;;32.00;26.30;;;;;;5011516;28;20666;-71
2023/10/03 00:20:28;;;;;;;7.00;3.10;;;32.10;26.30;;;;;;5013309;28;20678;-69
2023/10/03 00:22:56;;;;;;;5.07;2.80;;;32.30;26.40;;;;;;5013300;28;20196;-86
2023/10/03 00:25:24;;;;;;;6.78;3.08;;;32.40;26.40;;;;;;5013239;28;20193;-71
2023/10/03 00:27:54;;;;;;;6.63;3.03;;;32.30;26.10;;;;;;5013046;28;20232;-69
2023/10/03 00:30:26;;;;;;;6.85;3.35;;;32.20;26.00;;;;;;5011661;28;20192;-69
2023/10/03 00:32:54;;;;;;;7.20;3.38;;;32.30;26.30;;;;;;5013731;28;20199;-70
2023/10/03 00:35:22;;;;;;;7.72;2.85;;;32.40;25.80;;;;;;5012973;28;20648;-68
2023/10/03 00:37:53;;;;;;;4.18;2.75;;;32.30;25.70;;;;;;5011598;28;20584;-71
2023/10/03 00:43:00;;;;;;;4.95;3.33;;;32.40;25.90;;;;;;5013543;28;20177;-74
2023/10/03 00:45:29;;;;;;;4.28;2.78;;;32.50;25.90;;;;;;5018817;28;20188;-74
2023/10/03 00:47:58;;;;;;;4.45;2.72;;;32.70;26.50;;;;;;5010862;28;20220;-76
2023/10/03 00:50:27;;;;;;;7.82;2.95;;;32.90;25.60;;;;;;5012130;28;20202;-69
2023/10/03 00:53:04;;;;;;;4.10;2.97;;;33.00;24.70;;;;;;5010214;28;20181;-73
2023/10/03 00:55:33;;;;;;;5.97;3.00;;;32.70;25.30;;;;;;5008793;28;20180;-71
2023/10/03 01:00:41;;;;;;;9.32;3.38;;;32.80;25.40;;;;;;5012758;28;20725;-70
2023/10/03 01:03:28;;;;;;;6.40;2.90;;;33.00;25.70;;;;;;5012701;28;20193;-69
2023/10/03 01:06:04;;;;;;;7.72;2.97;;;33.10;25.30;;;;;;5011650;28;20209;-75
2023/10/03 01:08:39;;;;;;;5.78;2.75;;;33.10;24.80;;;;;;5011786;28;20215;-70
2023/10/03 01:11:25;;;;;;;4.10;2.83;;;33.30;25.00;;;;;;5012486;28;20187;-69
2023/10/03 01:13:57;;;;;;;3.53;2.90;;;33.50;24.70;;;;;;5012887;28;20185;-73
2023/10/03 01:16:36;;;;;;;6.60;2.78;;;33.50;25.00;;;;;;5012232;28;20272;-74
2023/10/03 01:21:45;;;;;;;7.45;3.40;;;33.50;24.90;;;;;;5012976;28;20191;-76
2023/10/03 01:24:20;;;;;;;5.60;3.00;;;33.70;24.90;;;;;;5011048;28;20612;-70
2023/10/03 01:26:48;;;;;;;3.67;3.05;;;33.90;24.80;;;;;;5012567;28;20212;-76
2023/10/03 01:29:16;;;;;;;5.40;3.28;;;34.10;24.60;;;;;;5012006;28;20554;-73
2023/10/03 01:31:46;;;;;;;5.95;3.38;;;34.30;24.90;;;;;;5011030;28;20198;-74
2023/10/03 01:34:15;;;;;;;7.45;3.20;;;34.30;24.20;;;;;;5006496;28;20268;-73
2023/10/03 01:36:48;;;;;;;4.70;2.88;;;34.20;24.40;;;;;;5010542;28;20276;-72
2023/10/03 01:39:16;;;;;;;4.53;3.03;;;34.40;24.50;;;;;;5009897;28;20187;-74
2023/10/03 01:41:54;;;;;;;8.93;3.35;;;34.50;24.50;;;;;;5012082;28;20192;-77
2023/10/03 01:44:21;;;;;;;6.15;3.20;;;34.60;24.30;;;;;;5012365;28;20191;-78
2023/10/03 01:46:48;;;;;;;7.43;3.25;;;34.40;23.30;;;;;;5011907;28;20243;-80
2023/10/03 01:49:16;;;;;;;7.05;2.97;;;34.50;23.00;;;;;;5011690;28;20181;-76
2023/10/03 01:51:43;;;;;;;6.78;3.45;;;34.50;23.60;;;;;;5010988;28;20535;-75
2023/10/03 01:54:11;;;;;;;5.18;3.20;;;34.50;23.30;;;;;;5002980;28;20188;-74
2023/10/03 01:56:41;;;;;;;6.85;3.20;;;34.60;23.50;;;;;;5010597;28;20196;-77
2023/10/03 01:59:11;;;;;;;3.97;2.88;;;34.80;23.00;;;;;;5010193;28;20189;-75
2023/10/03 02:01:39;;;;;;;9.15;3.03;;;34.90;23.10;;;;;;5011496;28;20196;-72
2023/10/03 02:04:06;;;;;;;6.93;2.95;;;35.00;22.60;;;;;;5012070;28;20644;-75
2023/10/03 02:06:34;;;;;;;5.93;3.08;;;35.30;22.70;;;;;;5010052;28;20769;-72
2023/10/03 02:09:03;;;;;;;6.68;3.38;;;35.30;22.00;;;;;;5011652;28;20189;-78
2023/10/03 02:11:32;;;;;;;6.60;3.45;;;35.40;22.30;;;;;;5012638;28;20181;-71
2023/10/03 02:14:01;;;;;;;4.10;2.70;;;35.60;22.10;;;;;;5011580;28;20201;-76
2023/10/03 02:16:28;;;;;;;3.35;2.70;;;35.90;21.10;;;;;;5010574;28;20185;-76
2023/10/03 02:18:56;;;;;;;3.72;2.67;;;35.90;20.30;;;;;;5011654;28;20189;-76
2023/10/03 02:21:23;;;;;;;6.55;3.03;;;35.50;19.60;;;;;;5009996;28;20201;-74
2023/10/03 02:23:52;;;;;;;6.13;2.90;;;35.70;20.00;;;;;;5011919;28;20228;-75
2023/10/03 02:26:20;;;;;;;4.07;2.60;;;35.70;19.60;;;;;;5011875;28;20197;-76
2023/10/03 02:28:48;;;;;;;7.32;2.53;;;35.60;18.60;;;;;;5012102;28;20200;-77
2023/10/03 02:31:17;;;;;;;7.63;2.20;;;35.70;19.00;;;;;;5011874;28;20267;-73
2023/10/03 02:33:44;;;;;;;5.72;2.50;;;35.80;18.50;;;;;;5011572;28;20182;-69
2023/10/03 02:36:14;;;;;;;3.92;2.28;;;35.80;18.10;;;;;;5013178;28;20192;-73
2023/10/03 02:38:42;;;;;;;3.38;2.20;;;35.80;18.00;;;;;;5013550;28;20702;-71
2023/10/03 02:41:12;;;;;;;8.73;2.50;;;35.90;17.90;;;;;;5016506;28;20613;-71
2023/10/03 02:43:43;;;;;;;3.67;2.35;;;35.60;18.20;;;;;;5016713;28;20184;-70
2023/10/03 02:46:12;;;;;;;6.45;2.30;;;35.80;18.00;;;;;;5014694;28;20209;-71
2023/10/03 02:48:41;;;;;;;4.78;2.40;;;36.20;18.10;;;;;;5015756;28;20684;-76
2023/10/03 02:51:09;;;;;;;5.28;2.50;;;36.50;17.60;;;;;;5015661;28;20576;-71
2023/10/03 02:53:37;;;;;;;3.75;2.50;;;36.70;17.70;;;;;;5012788;28;20705;-76
2023/10/03 02:56:07;;;;;;;5.95;2.10;;;36.80;17.30;;;;;;5014782;28;20644;-71
2023/10/03 02:58:35;;;;;;;4.22;2.17;;;36.60;17.50;;;;;;5012274;28;20579;-72
2023/10/03 03:01:03;;;;;;;4.22;2.25;;;36.90;17.10;;;;;;5014991;28;20185;-72
2023/10/03 03:03:32;;;;;;;4.93;2.08;;;36.80;17.10;;;;;;5015377;28;20177;-73
2023/10/03 03:06:04;;;;;;;3.17;2.20;;;36.50;17.00;;;;;;5014814;28;20216;-71
2023/10/03 03:08:31;;;;;;;2.42;1.80;;;36.90;17.20;;;;;;5014362;28;20182;-71
2023/10/03 03:11:03;;;;;;;3.42;1.95;;;37.20;17.10;;;;;;5008316;28;20186;-71
2023/10/03 03:13:37;;;;;;;3.58;2.03;;;37.50;16.70;;;;;;5015268;28;20197;-72
2023/10/03 03:16:11;;;;;;;3.15;2.03;;;37.50;16.40;;;;;;5015921;28;20181;-71
2023/10/03 03:18:43;;;;;;;5.65;2.30;;;37.50;16.60;;;;;;5014587;28;20184;-74
2023/10/03 03:21:19;;;;;;;3.83;2.00;;;37.60;16.30;;;;;;5013467;28;20193;-70
2023/10/03 03:24:08;;;;;;;2.55;2.10;;;37.50;16.60;;;;;;5008495;28;20224;-76
2023/10/03 03:26:39;;;;;;;3.55;2.25;;;37.60;16.10;;;;;;5001144;28;20205;-72
2023/10/03 03:29:20;;;;;;;5.10;2.03;;;36.90;16.60;;;;;;5005272;28;20247;-72
2023/10/03 03:31:52;;;;;;;3.72;1.98;;;37.10;16.50;;;;;;4999239;28;20186;-69
2023/10/03 03:34:21;;;;;;;4.25;2.30;;;37.20;16.50;;;;;;4999785;28;20790;-68
2023/10/03 03:36:54;;;;;;;4.22;2.42;;;37.60;16.90;;;;;;5003470;28;20186;-70
2023/10/03 03:39:22;;;;;;;4.68;2.20;;;37.60;16.70;;;;;;4996782;28;20213;-71
2023/10/03 03:41:49;;;;;;;4.97;2.28;;;37.80;16.70;;;;;;4997469;28;20184;-72
2023/10/03 03:44:18;;;;;;;5.28;2.50;;;38.00;16.60;;;;;;5006357;28;20182;-71
2023/10/03 03:46:46;;;;;;;2.30;2.10;;;38.20;16.80;;;;;;5002999;28;20855;-75
2023/10/03 03:49:14;;;;;;;3.72;2.17;;;37.70;17.00;;;;;;5005463;28;20204;-71
2023/10/03 03:51:41;;;;;;;4.40;1.85;;;37.60;17.10;;;;;;5002387;28;20527;-73
2023/10/03 03:54:12;;;;;;;5.32;2.30;;;38.00;17.00;;;;;;5004363;28;20205;-72
2023/10/03 03:56:40;;;;;;;5.63;2.63;;;37.20;17.30;;;;;;4998553;28;20197;-71
2023/10/03 03:59:08;;;;;;;8.50;2.67;;;36.80;17.70;;;;;;5004827;28;20253;-77
2023/10/03 04:01:35;;;;;;;3.13;2.00;;;36.80;17.80;;;;;;5005053;28;20213;-73
2023/10/03 04:04:05;;;;;;;5.22;2.72;;;36.80;17.90;;;;;;5003684;28;20186;-73
2023/10/03 04:06:33;;;;;;;7.00;2.30;;;36.60;17.70;;;;;;4998498;28;20217;-67
2023/10/03 04:09:00;;;;;;;9.07;2.35;;;36.80;17.70;;;;;;5008111;28;20189;-75
2023/10/03 04:11:27;;;;;;;4.63;2.60;;;36.90;17.80;;;;;;5002902;28;20186;-72
2023/10/03 04:13:55;;;;;;;5.57;2.67;;;37.00;17.50;;;;;;5010446;28;20243;-71
2023/10/03 04:16:26;;;;;;;8.32;2.85;;;37.20;17.70;;;;;;4995391;28;20178;-74
2023/10/03 04:18:54;;;;;;;4.65;2.55;;;37.50;17.60;;;;;;5000875;28;20190;-74
2023/10/03 04:21:32;;;;;;;3.60;2.20;;;37.30;17.60;;;;;;4993827;28;20210;-68
2023/10/03 04:23:59;;;;;;;5.93;2.53;;;37.10;17.10;;;;;;5006235;28;20229;-73
2023/10/03 04:26:32;;;;;;;6.82;2.70;;;37.00;17.60;;;;;;5011463;28;20635;-73
2023/10/03 04:28:59;;;;;;;3.85;2.38;;;37.30;17.10;;;;;;5008176;28;20197;-72
2023/10/03 04:31:27;;;;;;;6.15;2.53;;;37.60;16.90;;;;;;5006882;28;20185;-75
2023/10/03 04:33:56;;;;;;;3.65;2.17;;;37.70;17.00;;;;;;5010957;28;20185;-72
2023/10/03 04:36:25;;;;;;;3.95;2.42;;;38.00;16.60;;;;;;5009587;28;20548;-74
2023/10/03 04:38:53;;;;;;;4.43;2.53;;;37.60;16.60;;;;;;5014897;28;20181;-77
2023/10/03 04:41:20;;;;;;;4.70;2.33;;;37.90;16.40;;;;;;5010601;28;20184;-73
2023/10/03 04:43:49;;;;;;;3.30;2.20;;;37.80;16.50;;;;;;5011401;28;20797;-71
2023/10/03 04:46:17;;;;;;;4.75;2.20;;;37.90;16.40;;;;;;5004834;28;20675;-73
2023/10/03 04:48:44;;;;;;;3.92;2.58;;;38.20;16.60;;;;;;5013149;28;20185;-71
2023/10/03 04:51:15;;;;;;;5.10;2.33;;;37.90;16.70;;;;;;5011436;28;20173;-76
2023/10/03 04:53:43;;;;;;;3.15;2.10;;;38.00;16.40;;;;;;5013059;28;20193;-72
2023/10/03 04:56:11;;;;;;;3.80;2.90;;;37.70;16.40;;;;;;5010570;28;20174;-74
2023/10/03 04:58:38;;;;;;;3.13;2.58;;;37.30;16.50;;;;;;5025331;28;20177;-73
2023/10/03 05:04:27;;;;;;;4.32;2.33;;;38.30;15.40;;;;;;5007642;28;20219;-69
2023/10/03 05:06:55;;;;;;;6.00;2.17;;;38.60;15.30;;;;;;5013347;28;20615;-71
2023/10/03 05:09:22;;;;;;;3.05;2.40;;;38.40;15.30;;;;;;5010381;28;20235;-70
2023/10/03 05:11:50;;;;;;;9.57;2.13;;;38.20;15.40;;;;;;5012119;28;20216;-72
2023/10/03 05:14:17;;;;;;;3.00;1.98;;;38.30;15.60;;;;;;5028312;28;20264;-73
2023/10/03 05:16:44;;;;;;;3.92;2.70;;;38.10;15.40;;;;;;5011911;28;20178;-69
2023/10/03 05:19:12;;;;;;;3.33;2.63;;;37.60;16.00;;;;;;5012291;28;20184;-70
2023/10/03 05:21:40;;;;;;;3.65;2.50;;;37.10;16.10;;;;;;5010630;28;20196;-72
2023/10/03 05:24:10;;;;;;;5.28;2.30;;;36.50;16.40;;;;;;5011074;28;20252;-69
2023/10/03 05:26:42;;;;;;;6.22;3.03;;;36.90;16.50;;;;;;5012411;28;20303;-78
2023/10/03 05:29:09;;;;;;;15.32;4.78;;;37.90;18.90;;;;;;5009752;28;20640;-70
2023/10/03 05:31:41;;;;;;;11.57;4.57;;;36.30;25.80;;;;;;5011588;28;20226;-74
2023/10/03 05:34:10;;;;;;;12.02;4.72;;;35.40;27.10;;;;;;5010867;28;20188;-74
2023/10/03 05:36:37;;;;;;;12.90;5.53;;;35.10;28.10;;;;;;5010983;28;20185;-69
2023/10/03 05:39:11;;;;;;;11.18;4.47;;;34.60;28.90;;;;;;5011218;28;20185;-69
2023/10/03 05:41:42;;;;;;;15.00;5.10;;;34.30;28.90;;;;;;5012788;28;20185;-72
2023/10/03 05:44:13;;;;;;;11.43;5.00;;;34.30;28.50;;;;;;5012974;28;20264;-72
2023/10/03 05:46:45;;;;;;;9.57;4.30;;;33.90;28.10;;;;;;5012144;28;20331;-77
2023/10/03 05:49:12;;;;;;;8.90;4.38;;;33.80;27.90;;;;;;5011303;28;20701;-71
2023/10/03 05:51:51;;;;;;;11.82;5.25;;;33.80;27.10;;;;;;4997917;28;20666;-79
2023/10/03 05:54:20;;;;;;;13.23;4.82;;;33.20;29.00;;;;;;5026275;28;20185;-72
2023/10/03 05:56:49;;;;;;;12.00;5.38;;;33.00;29.60;;;;;;5011999;28;20181;-73
2023/10/03 05:59:16;;;;;;;12.57;5.22;;;32.70;30.60;;;;;;5012008;28;20185;-68
2023/10/03 06:01:45;;;;;;;11.45;5.55;;;32.30;31.50;;;;;;5012411;28;20196;-71
2023/10/03 06:04:12;;;;;;;13.02;5.72;;;31.90;32.20;;;;;;5011204;28;20263;-73
2023/10/03 06:06:40;;;;;;;13.25;6.00;;;31.80;32.60;;;;;;5012578;28;20691;-71
2023/10/03 06:09:12;;;;;;;12.02;5.60;;;31.30;33.30;;;;;;5011651;28;20224;-75
2023/10/03 06:11:39;;;;;;;14.48;5.97;;;31.10;34.20;;;;;;5013824;28;20192;-74
2023/10/03 06:14:07;;;;;;;15.27;6.47;;;30.70;35.10;;;;;;5016554;28;20169;-74
2023/10/03 06:16:36;;;;;;;12.50;6.45;;;30.40;35.60;;;;;;5016605;28;20739;-73
2023/10/03 06:19:08;;;;;;;17.52;6.70;;;30.30;36.10;;;;;;5016215;28;20173;-72
2023/10/03 06:21:35;;;;;;;18.02;6.22;;;30.20;36.20;;;;;;5013166;28;20659;-75
2023/10/03 06:24:03;;;;;;;18.50;7.30;;;30.00;36.70;;;;;;5015240;28;20283;-70
2023/10/03 06:26:30;;;;;;;20.85;9.93;;;29.80;37.00;;;;;;5016208;28;20307;-69
2023/10/03 06:29:00;;;;;;;11.53;6.30;;;29.70;37.70;;;;;;5013953;28;20192;-69
2023/10/03 06:31:30;;;;;;;14.57;6.97;;;29.60;37.50;;;;;;5014548;28;20239;-79
2023/10/03 06:33:57;;;;;;;12.40;7.27;;;29.50;37.80;;;;;;5013819;28;20736;-73
2023/10/03 06:36:24;;;;;;;14.93;6.87;;;29.40;37.90;;;;;;5012235;28;20177;-70
2023/10/03 06:38:52;;;;;;;16.50;6.80;;;29.40;37.70;;;;;;5013788;28;20177;-74
2023/10/03 06:41:21;;;;;;;12.50;6.50;;;29.30;37.50;;;;;;5012848;28;20703;-71
2023/10/03 06:43:49;;;;;;;13.47;6.93;;;29.30;37.80;;;;;;5011701;28;20694;-73
2023/10/03 06:46:17;;;;;;;20.77;7.03;;;29.30;37.70;;;;;;5011942;28;20240;-73
2023/10/03 06:48:48;;;;;;;12.87;6.57;;;29.30;37.50;;;;;;5013198;28;20195;-72
2023/10/03 06:51:17;;;;;;;11.47;6.70;;;29.30;37.20;;;;;;5014449;28;20173;-77
2023/10/03 06:53:47;;;;;;;13.37;6.20;;;29.30;37.40;;;;;;5014794;28;20596;-81
2023/10/03 06:56:15;;;;;;;17.63;7.53;;;29.30;37.40;;;;;;5012480;28;20193;-80
2023/10/03 06:58:43;;;;;;;17.07;7.07;;;29.20;37.70;;;;;;5011695;28;20227;-86
2023/10/03 07:01:13;;;;;;;19.60;7.50;;;29.10;38.00;;;;;;5013575;28;20189;-73
2023/10/03 07:03:41;;;;;;;18.50;8.13;;;29.10;38.10;;;;;;5014134;28;20181;-75
2023/10/03 07:06:08;;;;;;;15.60;7.03;;;29.00;38.50;;;;;;5014652;28;20224;-73
2023/10/03 07:08:37;;;;;;;18.23;7.53;;;28.90;38.60;;;;;;5015614;28;20197;-75
2023/10/03 07:11:12;;;;;;;15.77;6.83;;;28.90;38.90;;;;;;5014709;28;20197;-77
2023/10/03 07:13:40;;;;;;;15.67;7.97;;;28.70;39.00;;;;;;5011816;28;20193;-77
2023/10/03 07:16:09;;;;;;;21.57;7.67;;;28.70;39.20;;;;;;5015388;28;20195;-75
2023/10/03 07:18:38;;;;;;;16.03;8.10;;;28.60;39.70;;;;;;5014218;28;20193;-75
2023/10/03 07:21:05;;;;;;;15.83;8.07;;;28.60;40.10;;;;;;5013420;28;20267;-73
2023/10/03 07:23:32;;;;;;;15.47;7.27;;;28.50;40.60;;;;;;5013018;28;20238;-79
2023/10/03 07:26:00;;;;;;;14.67;7.83;;;28.40;40.90;;;;;;5014310;28;20189;-71
2023/10/03 07:28:27;;;;;;;16.53;7.70;;;28.30;41.10;;;;;;5013935;28;20547;-77
2023/10/03 07:30:56;;;;;;;17.10;7.17;;;28.30;41.50;;;;;;5014443;28;20247;-74
2023/10/03 07:33:23;;;;;;;25.23;8.20;;;28.20;41.70;;;;;;5013121;28;20253;-73
2023/10/03 07:35:52;;;;;;;17.33;7.77;;;28.10;42.10;;;;;;5012923;28;20201;-71
2023/10/03 07:38:19;;;;;;;14.23;7.17;;;28.00;42.50;;;;;;5015651;28;20674;-74
2023/10/03 07:40:47;;;;;;;17.30;7.97;;;27.90;43.10;;;;;;5015110;28;20249;-73
2023/10/03 07:43:16;;;;;;;22.17;8.27;;;27.80;43.10;;;;;;5013739;28;20189;-74
2023/10/03 07:45:43;;;;;;;19.07;7.83;;;27.80;43.50;;;;;;5012847;28;20194;-75
2023/10/03 07:48:11;;;;;;;17.50;7.67;;;27.80;43.90;;;;;;5012928;28;20542;-71
2023/10/03 07:50:43;;;;;;;19.23;8.33;;;27.60;44.00;;;;;;5011846;28;20260;-75
2023/10/03 07:53:11;;;;;;;23.43;8.17;;;27.60;44.40;;;;;;5012661;28;20545;-73
2023/10/03 07:55:42;;;;;;;17.80;8.20;;;27.50;44.60;;;;;;5007978;28;20703;-74
2023/10/03 07:58:14;;;;;;;24.17;8.27;;;27.40;45.10;;;;;;5008770;28;20177;-76
2023/10/03 08:00:46;;;;;;;17.50;8.50;;;27.30;46.00;;;;;;5011614;28;20606;-70
2023/10/03 08:03:14;;;;;;;23.57;8.10;;;27.20;46.30;;;;;;5016964;28;20271;-73
2023/10/03 08:05:42;;;;;;;20.63;8.53;;;27.20;46.50;;;;;;5010928;28;20216;-73
2023/10/03 08:08:09;;;;;;;20.17;8.30;;;27.10;46.80;;;;;;5009946;28;20671;-74
2023/10/03 08:11:46;;;;;;;;;;;;;;;;;;;;;
2023/10/03 08:13:50;;;;;;;21.03;7.60;;;26.90;47.50;;;;;;5013156;28;20209;-80
2023/10/03 08:16:24;;;;;;;24.70;8.53;;;26.80;47.90;;;;;;5014494;28;20185;-83
2023/10/03 08:18:58;;;;;;;21.07;7.93;;;26.80;48.00;;;;;;5014878;28;20718;-80
2023/10/03 08:21:29;;;;;;;21.37;8.40;;;26.70;48.30;;;;;;5005521;28;20176;-81
2023/10/03 08:23:58;;;;;;;21.97;8.33;;;26.60;48.10;;;;;;5001205;28;20217;-85
2023/10/03 08:26:26;;;;;;;18.67;8.10;;;26.60;48.80;;;;;;4996187;28;20672;-78
2023/10/03 08:29:04;;;;;;;24.47;8.60;;;26.60;48.70;;;;;;5005511;28;20190;-78
2023/10/03 08:31:32;;;;;;;22.70;7.63;;;26.50;48.80;;;;;;4993515;28;20655;-77
2023/10/03 08:34:10;;;;;;;19.17;7.93;;;26.50;48.80;;;;;;4992777;28;20246;-77
2023/10/03 08:36:38;;;;;;;25.30;8.63;;;26.40;49.10;;;;;;4984467;28;20217;-77
2023/10/03 08:39:14;;;;;;;28.10;8.70;;;26.40;49.40;;;;;;5002632;28;20655;-76
2023/10/03 08:41:54;;;;;;;22.27;8.37;;;26.30;49.70;;;;;;4999928;28;20193;-80
2023/10/03 08:44:31;;;;;;;21.07;8.10;;;26.30;49.60;;;;;;4999834;28;20193;-82
2023/10/03 08:47:02;;;;;;;24.60;8.03;;;26.30;49.90;;;;;;4991115;28;20614;-76
2023/10/03 08:49:38;;;;;;;20.57;8.60;;;26.30;49.80;;;;;;4981762;28;20213;-76
2023/10/03 08:52:09;;;;;;;21.43;8.07;;;26.30;50.00;;;;;;4995663;28;20699;-76
2023/10/03 08:54:43;;;;;;;20.20;8.33;;;26.30;50.00;;;;;;5003552;28;20186;-77
2023/10/03 08:57:10;;;;;;;24.53;7.90;;;26.30;50.50;;;;;;5000367;28;20189;-79
2023/10/03 08:59:41;;;;;;;26.67;9.13;;;26.10;50.80;;;;;;4999284;28;20185;-80
2023/10/03 09:02:24;;;;;;;18.63;8.70;;;26.10;51.10;;;;;;5005285;28;20189;-77
2023/10/03 09:04:52;;;;;;;30.10;8.90;;;26.00;51.20;;;;;;4995575;28;20185;-78
2023/10/03 09:07:20;;;;;;;23.50;8.30;;;26.00;51.60;;;;;;4993854;28;20737;-79
2023/10/03 09:09:47;;;;;;;26.20;9.27;;;26.00;51.70;;;;;;4994456;28;20217;-76
2023/10/03 09:12:20;;;;;;;22.03;8.40;;;26.00;51.80;;;;;;4996994;28;20178;-78
2023/10/03 09:14:53;;;;;;;21.70;8.60;;;25.90;52.00;;;;;;5000974;28;20230;-77
2023/10/03 09:17:28;;;;;;;26.30;8.37;;;25.90;52.10;;;;;;4995204;28;20644;-79
2023/10/03 09:20:04;;;;;;;23.37;8.87;;;25.90;52.10;;;;;;4993250;28;20307;-77
2023/10/03 09:22:32;;;;;;;21.27;8.73;;;25.90;52.10;;;;;;4985735;28;20170;-77
2023/10/03 09:25:00;;;;;;;22.33;8.77;;;25.90;51.70;;;;;;5013058;28;20306;-77
2023/10/03 09:27:30;;;;;;;27.13;9.60;;;25.80;52.00;;;;;;5023362;28;20553;-80
2023/10/03 09:29:59;;;;;;;24.03;8.23;;;25.90;51.70;;;;;;5019404;28;20177;-77
2023/10/03 09:32:29;;;;;;;24.30;9.37;;;25.90;51.60;;;;;;5020103;28;20191;-77
2023/10/03 09:35:09;;;;;;;22.70;9.50;;;25.90;51.20;;;;;;5007197;28;20206;-77
2023/10/03 09:37:43;;;;;;;21.70;8.40;;;25.90;51.00;;;;;;5016563;28;20180;-76
2023/10/03 09:40:18;;;;;;;24.87;8.27;;;26.00;50.70;;;;;;5023462;28;20267;-78
2023/10/03 09:42:49;;;;;;;21.10;8.53;;;25.90;50.50;;;;;;5012180;28;20188;-77
2023/10/03 09:45:31;;;;;;;17.93;8.00;;;26.00;50.40;;;;;;5015849;28;20173;-76
2023/10/03 09:48:05;;;;;;;21.33;8.37;;;26.00;49.90;;;;;;5016711;28;20217;-77
2023/10/03 09:50:35;;;;;;;25.43;7.80;;;26.10;50.00;;;;;;5014741;28;20177;-75
2023/10/03 09:53:06;;;;;;;24.13;9.17;;;26.10;50.20;;;;;;5012011;28;20231;-75
2023/10/03 09:55:47;;;;;;;23.83;8.33;;;26.00;50.50;;;;;;5024652;28;20180;-77
2023/10/03 09:58:24;;;;;;;25.13;8.03;;;26.00;50.90;;;;;;5014923;28;20567;-77
2023/10/03 10:00:55;;;;;;;20.17;8.97;;;26.00;51.00;;;;;;5022463;28;20321;-78
2023/10/03 10:03:33;;;;;;;25.57;9.23;;;25.90;51.50;;;;;;5007561;28;20186;-77
2023/10/03 10:06:28;;;;;;;23.83;9.00;;;25.90;51.90;;;;;;5013515;28;20189;-80
2023/10/03 10:09:14;;;;;;;22.10;8.97;;;25.80;52.70;;;;;;5010820;28;20193;-77
2023/10/03 10:12:12;;;;;;;21.80;8.43;;;25.80;53.00;;;;;;5016831;28;20180;-75
2023/10/03 10:15:01;;;;;;;21.30;8.27;;;25.70;53.60;;;;;;5011433;28;20711;-76
2023/10/03 10:17:56;;;;;;;21.53;7.97;;;25.50;53.50;;;;;;5004914;28;20272;-77
2023/10/03 10:20:32;;;;;;;24.77;8.77;;;25.50;53.60;;;;;;5005592;28;20271;-76
2023/10/03 10:23:04;;;;;;;20.50;8.77;;;25.50;53.80;;;;;;5023390;28;20184;-76
2023/10/03 10:25:43;;;;;;;28.13;9.10;;;25.50;53.80;;;;;;5012604;28;20659;-78
2023/10/03 10:28:26;;;;;;;33.60;8.93;;;25.50;53.90;;;;;;5007918;28;20307;-78
2023/10/03 10:31:15;;;;;;;21.90;7.97;;;25.50;53.90;;;;;;5018612;28;20212;-76
2023/10/03 10:33:47;;;;;;;26.10;9.13;;;25.40;54.00;;;;;;5012723;28;20181;-80
2023/10/03 10:36:18;;;;;;;30.83;9.37;;;25.30;54.10;;;;;;5020809;28;20185;-82
2023/10/03 10:38:49;;;;;;;21.43;8.13;;;25.40;54.40;;;;;;5012503;28;20177;-77
2023/10/03 10:41:26;;;;;;;24.23;8.30;;;25.30;54.90;;;;;;5021807;28;20188;-79
2023/10/03 10:44:13;;;;;;;25.30;8.40;;;25.30;55.20;;;;;;5014772;28;20189;-81
2023/10/03 10:46:46;;;;;;;24.20;8.53;;;25.20;55.20;;;;;;5033731;28;20215;-80
2023/10/03 10:49:36;;;;;;;25.67;8.40;;;25.20;55.50;;;;;;5026890;28;20192;-81
2023/10/03 10:52:12;;;;;;;29.80;9.00;;;25.10;55.70;;;;;;5018555;28;20185;-78
2023/10/03 10:54:42;;;;;;;24.23;7.90;;;25.10;56.00;;;;;;5025672;28;20251;-80
2023/10/03 10:57:31;;;;;;;21.23;8.47;;;25.00;56.00;;;;;;5016857;28;20180;-78
2023/10/03 10:59:59;;;;;;;27.43;9.07;;;24.90;56.50;;;;;;5008953;28;20185;-80
2023/10/03 11:02:27;;;;;;;33.27;8.93;;;24.90;56.70;;;;;;5014579;28;20185;-76
2023/10/03 11:04:58;;;;;;;24.83;9.67;;;24.80;56.90;;;;;;5013854;28;20181;-81
2023/10/03 11:07:31;;;;;;;21.80;8.20;;;24.80;56.80;;;;;;5013442;28;20248;-77
2023/10/03 11:10:17;;;;;;;23.37;8.80;;;24.90;56.50;;;;;;5013762;28;20191;-79
2023/10/03 11:12:57;;;;;;;25.30;9.10;;;24.80;56.70;;;;;;5013198;28;20592;-78
2023/10/03 11:15:26;;;;;;;27.80;9.13;;;24.80;56.60;;;;;;5024044;28;20187;-80
2023/10/03 11:17:53;;;;;;;23.07;8.20;;;24.80;56.50;;;;;;5013644;28;20189;-80
2023/10/03 11:20:21;;;;;;;23.93;8.00;;;24.80;56.30;;;;;;5010716;28;20231;-78
2023/10/03 11:22:49;;;;;;;23.00;8.80;;;24.80;56.30;;;;;;5010067;28;20188;-77
2023/10/03 11:25:18;;;;;;;26.83;8.87;;;24.80;56.00;;;;;;5015839;28;20276;-80
2023/10/03 11:27:50;;;;;;;23.87;8.40;;;24.90;55.80;;;;;;5012666;28;20229;-76
2023/10/03 11:30:34;;;;;;;21.20;8.33;;;24.90;55.80;;;;;;4995093;28;20669;-78
2023/10/03 11:33:02;;;;;;;21.27;8.07;;;24.90;55.70;;;;;;5010352;28;20273;-79
2023/10/03 11:35:30;;;;;;;26.07;8.70;;;24.80;55.80;;;;;;5014275;28;20173;-79
2023/10/03 11:38:07;;;;;;;25.60;8.33;;;24.80;56.00;;;;;;5014981;28;20181;-77
2023/10/03 11:40:34;;;;;;;22.10;8.37;;;24.80;56.10;;;;;;5014821;28;20639;-78
2023/10/03 11:43:07;;;;;;;22.50;7.73;;;24.80;56.20;;;;;;5016467;28;20185;-81
2023/10/03 11:45:46;;;;;;;26.53;8.33;;;24.80;56.30;;;;;;4993499;28;20214;-78
2023/10/03 11:48:22;;;;;;;23.37;9.37;;;24.70;56.40;;;;;;4997460;28;20255;-79
2023/10/03 11:54:16;;;;;;;25.97;9.07;;;24.70;56.50;;;;;;5010242;28;20329;-77
2023/10/03 11:56:48;;;;;;;24.13;7.97;;;24.60;56.40;;;;;;5014912;28;20181;-79
2023/10/03 11:59:17;;;;;;;27.17;8.57;;;24.60;56.40;;;;;;5015379;28;20235;-80
2023/10/03 12:01:48;;;;;;;26.10;8.23;;;24.60;56.50;;;;;;5013730;28;20185;-83
2023/10/03 12:04:19;;;;;;;17.73;7.43;;;24.60;56.30;;;;;;5012996;28;20199;-81
2023/10/03 12:06:47;;;;;;;23.40;9.20;;;24.60;56.30;;;;;;5013014;28;20197;-82
2023/10/03 12:09:17;;;;;;;18.20;7.87;;;24.60;56.20;;;;;;5012907;28;20208;-83
2023/10/03 12:11:45;;;;;;;25.83;8.33;;;24.60;56.10;;;;;;5014000;28;20255;-83
2023/10/03 12:14:13;;;;;;;22.70;7.97;;;24.50;56.30;;;;;;5013282;28;20243;-83
2023/10/03 12:16:40;;;;;;;25.17;7.50;;;24.50;56.30;;;;;;5020599;28;20182;-82
2023/10/03 12:19:12;;;;;;;26.17;8.03;;;24.50;56.30;;;;;;5012920;28;20263;-79
2023/10/03 12:21:39;;;;;;;19.97;7.97;;;24.40;56.40;;;;;;5012003;28;20177;-83
2023/10/03 12:24:08;;;;;;;24.03;8.13;;;24.30;56.30;;;;;;5014289;28;20225;-81
2023/10/03 12:26:37;;;;;;;31.70;9.17;;;24.30;56.40;;;;;;5012349;28;20219;-82
2023/10/03 12:29:08;;;;;;;20.83;7.77;;;24.30;56.30;;;;;;5014309;28;20189;-85
2023/10/03 12:31:35;;;;;;;22.93;7.60;;;24.20;56.60;;;;;;5028913;28;20191;-82
2023/10/03 12:34:03;;;;;;;28.40;8.13;;;24.30;56.70;;;;;;5029065;28;20520;-82
2023/10/03 12:36:33;;;;;;;23.07;7.77;;;24.20;56.80;;;;;;5000954;28;20185;-84
2023/10/03 12:39:10;;;;;;;22.50;8.10;;;24.10;56.80;;;;;;5013740;28;20223;-80
2023/10/03 12:41:38;;;;;;;23.70;8.47;;;24.10;56.80;;;;;;5013767;28;20187;-83
2023/10/03 12:44:06;;;;;;;29.03;8.07;;;24.10;56.90;;;;;;5006380;28;20178;-80
2023/10/03 12:46:33;;;;;;;26.60;8.00;;;24.00;56.80;;;;;;5006904;28;20213;-82
2023/10/03 12:49:01;;;;;;;26.03;7.93;;;24.00;56.20;;;;;;5013930;28;20304;-81
2023/10/03 12:51:29;;;;;;;23.07;7.13;;;24.10;55.60;;;;;;5013858;28;20589;-81
2023/10/03 12:53:56;;;;;;;21.17;7.93;;;24.10;55.30;;;;;;5013739;28;20536;-82
2023/10/03 12:56:27;;;;;;;22.87;7.60;;;24.10;55.10;;;;;;5012876;28;20311;-83
2023/10/03 12:58:57;;;;;;;23.97;7.67;;;24.20;54.70;;;;;;5013262;28;20264;-80
2023/10/03 13:01:24;;;;;;;20.03;7.97;;;24.20;54.40;;;;;;5013015;28;20189;-78
2023/10/03 13:03:52;;;;;;;25.23;6.70;;;24.20;54.30;;;;;;5012932;28;20172;-76
2023/10/03 13:06:20;;;;;;;21.60;7.17;;;24.20;54.10;;;;;;5011695;28;20664;-78
2023/10/03 13:08:47;;;;;;;24.80;7.50;;;24.30;53.90;;;;;;5013259;28;20189;-80
2023/10/03 13:11:21;;;;;;;21.50;7.27;;;24.20;53.70;;;;;;5025210;28;20189;-81
2023/10/03 13:13:50;;;;;;;21.33;7.10;;;24.30;53.10;;;;;;5011114;28;20644;-80
2023/10/03 13:16:17;;;;;;;18.97;7.40;;;24.30;52.70;;;;;;5012339;28;20177;-80